sensor_id;sensor_type;location;lat;lon;timestamp;temperature;humidity
4564;DHT22;2294;51.818;8.484;2023-02-28T00:00:09;-0.10;99.90
4564;DHT22;2294;51.818;8.484;2023-02-28T00:02:40;-0.20;99.90
4564;DHT22;2294;51.818;8.484;2023-02-28T00:05:09;-0.10;99.90
4564;DHT22;2294;51.818;8.484;2023-02-28T00:07:37;-0.10;99.90
4564;DHT22;2294;51.818;8.484;2023-02-28T00:10:05;-0.10;99.90
4564;DHT22;2294;51.818;8.484;2023-02-28T00:12:33;-0.10;99.90
4564;DHT22;2294;51.818;8.484;2023-02-28T00:15:00;-0.20;99.90
4564;DHT22;2294;51.818;8.484;2023-02-28T00:17:27;-0.20;99.90
4564;DHT22;2294;51.818;8.484;2023-02-28T00:19:56;-0.20;99.90
4564;DHT22;2294;51.818;8.484;2023-02-28T00:22:27;-0.10;99.90
4564;DHT22;2294;51.818;8.484;2023-02-28T00:24:54;-0.10;99.90
4564;DHT22;2294;51.818;8.484;2023-02-28T00:27:20;0.00;99.90
4564;DHT22;2294;51.818;8.484;2023-02-28T00:29:47;0.20;99.90
4564;DHT22;2294;51.818;8.484;2023-02-28T00:32:14;0.00;99.90
4564;DHT22;2294;51.818;8.484;2023-02-28T00:34:41;0.00;99.90
4564;DHT22;2294;51.818;8.484;2023-02-28T00:37:11;0.00;99.90
4564;DHT22;2294;51.818;8.484;2023-02-28T00:39:39;-0.10;99.90
4564;DHT22;2294;51.818;8.484;2023-02-28T00:42:07;-0.10;99.90
4564;DHT22;2294;51.818;8.484;2023-02-28T00:44:34;0.00;99.90
4564;DHT22;2294;51.818;8.484;2023-02-28T00:47:01;-0.10;99.90
4564;DHT22;2294;51.818;8.484;2023-02-28T00:49:28;0.00;99.90
4564;DHT22;2294;51.818;8.484;2023-02-28T00:51:55;0.00;99.90
4564;DHT22;2294;51.818;8.484;2023-02-28T00:54:24;-0.10;99.90
4564;DHT22;2294;51.818;8.484;2023-02-28T00:56:51;0.00;99.90
4564;DHT22;2294;51.818;8.484;2023-02-28T00:59:18;0.00;99.90
4564;DHT22;2294;51.818;8.484;2023-02-28T01:01:45;0.00;99.90
4564;DHT22;2294;51.818;8.484;2023-02-28T01:04:13;0.00;99.90
4564;DHT22;2294;51.818;8.484;2023-02-28T01:06:40;-0.10;99.90
4564;DHT22;2294;51.818;8.484;2023-02-28T01:09:07;-0.20;99.90
4564;DHT22;2294;51.818;8.484;2023-02-28T01:11:36;-0.20;99.90
4564;DHT22;2294;51.818;8.484;2023-02-28T01:14:03;-0.20;99.90
4564;DHT22;2294;51.818;8.484;2023-02-28T01:16:31;-0.20;99.90
4564;DHT22;2294;51.818;8.484;2023-02-28T01:18:58;-0.30;99.90
4564;DHT22;2294;51.818;8.484;2023-02-28T01:21:25;-0.40;99.90
4564;DHT22;2294;51.818;8.484;2023-02-28T01:23:52;-0.40;99.90
4564;DHT22;2294;51.818;8.484;2023-02-28T01:26:20;-0.40;99.90
4564;DHT22;2294;51.818;8.484;2023-02-28T01:28:49;-0.50;99.90
4564;DHT22;2294;51.818;8.484;2023-02-28T01:31:16;-0.50;99.90
4564;DHT22;2294;51.818;8.484;2023-02-28T01:33:44;-0.60;99.90
4564;DHT22;2294;51.818;8.484;2023-02-28T01:36:13;-0.70;99.90
4564;DHT22;2294;51.818;8.484;2023-02-28T01:38:41;-0.70;99.90
4564;DHT22;2294;51.818;8.484;2023-02-28T01:41:09;-0.70;99.90
4564;DHT22;2294;51.818;8.484;2023-02-28T01:43:56;-0.80;99.90
4564;DHT22;2294;51.818;8.484;2023-02-28T01:46:24;-0.70;99.90
4564;DHT22;2294;51.818;8.484;2023-02-28T01:48:53;-0.70;99.90
4564;DHT22;2294;51.818;8.484;2023-02-28T01:51:23;-0.70;99.90
4564;DHT22;2294;51.818;8.484;2023-02-28T01:53:54;-0.70;99.90
4564;DHT22;2294;51.818;8.484;2023-02-28T01:56:26;-0.80;99.90
4564;DHT22;2294;51.818;8.484;2023-02-28T01:58:55;-0.70;99.90
4564;DHT22;2294;51.818;8.484;2023-02-28T02:01:24;-0.70;99.90
4564;DHT22;2294;51.818;8.484;2023-02-28T02:03:54;-0.80;99.90
4564;DHT22;2294;51.818;8.484;2023-02-28T02:06:22;-0.90;99.90
4564;DHT22;2294;51.818;8.484;2023-02-28T02:08:49;-0.80;99.90
4564;DHT22;2294;51.818;8.484;2023-02-28T02:11:19;-0.90;99.90
4564;DHT22;2294;51.818;8.484;2023-02-28T02:14:13;-0.90;99.90
4564;DHT22;2294;51.818;8.484;2023-02-28T02:17:16;-0.90;99.90
4564;DHT22;2294;51.818;8.484;2023-02-28T02:25:53;-0.90;99.90
4564;DHT22;2294;51.818;8.484;2023-02-28T02:34:33;-1.20;99.90
4564;DHT22;2294;51.818;8.484;2023-02-28T02:37:12;-1.10;99.90
4564;DHT22;2294;51.818;8.484;2023-02-28T02:39:47;-1.00;99.90
4564;DHT22;2294;51.818;8.484;2023-02-28T02:42:17;-1.00;99.90
4564;DHT22;2294;51.818;8.484;2023-02-28T02:44:50;-1.20;99.90
4564;DHT22;2294;51.818;8.484;2023-02-28T02:47:21;-1.20;99.90
4564;DHT22;2294;51.818;8.484;2023-02-28T02:49:54;-1.10;99.90
4564;DHT22;2294;51.818;8.484;2023-02-28T02:52:25;-1.00;99.90
4564;DHT22;2294;51.818;8.484;2023-02-28T02:54:56;-0.90;99.90
4564;DHT22;2294;51.818;8.484;2023-02-28T02:57:26;-1.10;99.90
4564;DHT22;2294;51.818;8.484;2023-02-28T02:59:55;-1.10;99.90
4564;DHT22;2294;51.818;8.484;2023-02-28T03:02:23;-1.00;99.90
4564;DHT22;2294;51.818;8.484;2023-02-28T03:04:53;-0.90;99.90
4564;DHT22;2294;51.818;8.484;2023-02-28T03:07:26;-0.90;99.90
4564;DHT22;2294;51.818;8.484;2023-02-28T03:09:54;-1.10;99.90
4564;DHT22;2294;51.818;8.484;2023-02-28T03:12:23;-1.10;99.90
4564;DHT22;2294;51.818;8.484;2023-02-28T03:14:58;-1.10;99.90
4564;DHT22;2294;51.818;8.484;2023-02-28T03:17:57;-1.20;99.90
4564;DHT22;2294;51.818;8.484;2023-02-28T03:20:36;-1.30;99.90
4564;DHT22;2294;51.818;8.484;2023-02-28T03:23:15;-1.20;99.90
4564;DHT22;2294;51.818;8.484;2023-02-28T03:25:54;-1.20;99.90
4564;DHT22;2294;51.818;8.484;2023-02-28T03:28:30;-1.30;99.90
4564;DHT22;2294;51.818;8.484;2023-02-28T03:31:00;-1.40;99.90
4564;DHT22;2294;51.818;8.484;2023-02-28T03:33:32;-1.50;99.90
4564;DHT22;2294;51.818;8.484;2023-02-28T03:36:03;-1.50;99.90
4564;DHT22;2294;51.818;8.484;2023-02-28T03:38:35;-1.40;99.90
4564;DHT22;2294;51.818;8.484;2023-02-28T03:41:08;-1.40;99.90
4564;DHT22;2294;51.818;8.484;2023-02-28T03:43:40;-1.60;99.90
4564;DHT22;2294;51.818;8.484;2023-02-28T03:46:11;-1.40;99.90
4564;DHT22;2294;51.818;8.484;2023-02-28T03:48:43;-1.50;99.90
4564;DHT22;2294;51.818;8.484;2023-02-28T03:51:15;-1.40;99.90
4564;DHT22;2294;51.818;8.484;2023-02-28T03:53:46;-1.40;99.90
4564;DHT22;2294;51.818;8.484;2023-02-28T03:56:16;-1.50;99.90
4564;DHT22;2294;51.818;8.484;2023-02-28T03:58:49;-1.30;99.90
4564;DHT22;2294;51.818;8.484;2023-02-28T04:01:20;-1.20;99.90
4564;DHT22;2294;51.818;8.484;2023-02-28T04:03:49;-1.10;99.90
4564;DHT22;2294;51.818;8.484;2023-02-28T04:06:20;-1.30;99.90
4564;DHT22;2294;51.818;8.484;2023-02-28T04:08:49;-1.20;99.90
4564;DHT22;2294;51.818;8.484;2023-02-28T04:11:20;-1.20;99.90
4564;DHT22;2294;51.818;8.484;2023-02-28T04:13:47;-1.20;99.90
4564;DHT22;2294;51.818;8.484;2023-02-28T04:16:15;-1.20;99.90
4564;DHT22;2294;51.818;8.484;2023-02-28T04:18:42;-1.20;99.90
4564;DHT22;2294;51.818;8.484;2023-02-28T04:21:10;-1.30;99.90
4564;DHT22;2294;51.818;8.484;2023-02-28T04:23:38;-1.30;99.90
4564;DHT22;2294;51.818;8.484;2023-02-28T04:26:05;-1.30;99.90
4564;DHT22;2294;51.818;8.484;2023-02-28T04:28:32;-1.50;99.90
4564;DHT22;2294;51.818;8.484;2023-02-28T04:31:02;-1.70;99.90
4564;DHT22;2294;51.818;8.484;2023-02-28T04:33:30;-1.60;99.90
4564;DHT22;2294;51.818;8.484;2023-02-28T04:36:01;-1.50;99.90
4564;DHT22;2294;51.818;8.484;2023-02-28T04:38:29;-1.40;99.90
4564;DHT22;2294;51.818;8.484;2023-02-28T04:40:59;-1.50;99.90
4564;DHT22;2294;51.818;8.484;2023-02-28T04:43:26;-1.60;99.90
4564;DHT22;2294;51.818;8.484;2023-02-28T04:45:54;-1.50;99.90
4564;DHT22;2294;51.818;8.484;2023-02-28T04:48:22;-1.70;99.90
4564;DHT22;2294;51.818;8.484;2023-02-28T04:50:50;-1.70;99.90
4564;DHT22;2294;51.818;8.484;2023-02-28T04:53:17;-1.70;99.90
4564;DHT22;2294;51.818;8.484;2023-02-28T04:55:44;-1.70;99.90
4564;DHT22;2294;51.818;8.484;2023-02-28T04:58:12;-1.80;99.90
4564;DHT22;2294;51.818;8.484;2023-02-28T05:00:39;-1.60;99.90
4564;DHT22;2294;51.818;8.484;2023-02-28T05:03:06;-1.70;99.90
4564;DHT22;2294;51.818;8.484;2023-02-28T05:05:33;-1.90;99.90
4564;DHT22;2294;51.818;8.484;2023-02-28T05:08:00;-2.10;99.90
4564;DHT22;2294;51.818;8.484;2023-02-28T05:10:26;-2.20;99.90
4564;DHT22;2294;51.818;8.484;2023-02-28T05:12:53;-2.10;99.90
4564;DHT22;2294;51.818;8.484;2023-02-28T05:15:21;-2.10;99.90
4564;DHT22;2294;51.818;8.484;2023-02-28T05:17:48;-2.10;99.90
4564;DHT22;2294;51.818;8.484;2023-02-28T05:20:15;-2.20;99.90
4564;DHT22;2294;51.818;8.484;2023-02-28T05:22:43;-2.20;99.90
4564;DHT22;2294;51.818;8.484;2023-02-28T05:25:13;-2.20;99.90
4564;DHT22;2294;51.818;8.484;2023-02-28T05:27:42;-2.20;99.90
4564;DHT22;2294;51.818;8.484;2023-02-28T05:30:10;-2.30;99.90
4564;DHT22;2294;51.818;8.484;2023-02-28T05:32:40;-2.10;99.90
4564;DHT22;2294;51.818;8.484;2023-02-28T05:35:08;-2.10;99.90
4564;DHT22;2294;51.818;8.484;2023-02-28T05:37:36;-2.10;99.90
4564;DHT22;2294;51.818;8.484;2023-02-28T05:40:04;-2.10;99.90
4564;DHT22;2294;51.818;8.484;2023-02-28T05:42:35;-1.90;99.90
4564;DHT22;2294;51.818;8.484;2023-02-28T05:45:03;-2.00;99.90
4564;DHT22;2294;51.818;8.484;2023-02-28T05:47:30;-2.00;99.90
4564;DHT22;2294;51.818;8.484;2023-02-28T05:49:58;-2.00;99.90
4564;DHT22;2294;51.818;8.484;2023-02-28T05:52:25;-2.10;99.90
4564;DHT22;2294;51.818;8.484;2023-02-28T05:54:52;-2.20;99.90
4564;DHT22;2294;51.818;8.484;2023-02-28T05:57:19;-2.00;99.90
4564;DHT22;2294;51.818;8.484;2023-02-28T05:59:47;-2.10;99.90
4564;DHT22;2294;51.818;8.484;2023-02-28T06:02:15;-2.30;99.90
4564;DHT22;2294;51.818;8.484;2023-02-28T06:04:43;-2.20;99.90
4564;DHT22;2294;51.818;8.484;2023-02-28T06:07:11;-2.10;99.90
4564;DHT22;2294;51.818;8.484;2023-02-28T06:09:38;-2.10;99.90
4564;DHT22;2294;51.818;8.484;2023-02-28T06:12:07;-2.10;99.90
4564;DHT22;2294;51.818;8.484;2023-02-28T06:14:35;-2.10;99.90
4564;DHT22;2294;51.818;8.484;2023-02-28T06:17:03;-2.20;99.90
4564;DHT22;2294;51.818;8.484;2023-02-28T06:19:30;-2.20;99.90
4564;DHT22;2294;51.818;8.484;2023-02-28T06:21:57;-2.20;99.90
4564;DHT22;2294;51.818;8.484;2023-02-28T06:24:26;-2.30;99.90
4564;DHT22;2294;51.818;8.484;2023-02-28T06:26:54;-2.20;99.90
4564;DHT22;2294;51.818;8.484;2023-02-28T06:29:21;-2.20;99.90
4564;DHT22;2294;51.818;8.484;2023-02-28T06:31:48;-2.10;99.90
4564;DHT22;2294;51.818;8.484;2023-02-28T06:34:15;-2.10;99.90
4564;DHT22;2294;51.818;8.484;2023-02-28T06:36:42;-2.20;99.90
4564;DHT22;2294;51.818;8.484;2023-02-28T06:39:09;-2.10;99.90
4564;DHT22;2294;51.818;8.484;2023-02-28T06:41:38;-1.90;99.90
4564;DHT22;2294;51.818;8.484;2023-02-28T06:44:08;-1.90;99.90
4564;DHT22;2294;51.818;8.484;2023-02-28T06:46:38;-1.80;99.90
4564;DHT22;2294;51.818;8.484;2023-02-28T06:49:05;-1.90;99.90
4564;DHT22;2294;51.818;8.484;2023-02-28T06:51:34;-2.00;99.90
4564;DHT22;2294;51.818;8.484;2023-02-28T06:54:02;-2.00;99.90
4564;DHT22;2294;51.818;8.484;2023-02-28T06:56:29;-1.90;99.90
4564;DHT22;2294;51.818;8.484;2023-02-28T06:58:57;-1.90;99.90
4564;DHT22;2294;51.818;8.484;2023-02-28T07:01:24;-1.90;99.90
4564;DHT22;2294;51.818;8.484;2023-02-28T07:03:51;-1.70;99.90
4564;DHT22;2294;51.818;8.484;2023-02-28T07:06:19;-1.50;99.90
4564;DHT22;2294;51.818;8.484;2023-02-28T07:08:48;-1.30;99.90
4564;DHT22;2294;51.818;8.484;2023-02-28T07:11:15;-1.30;99.90
4564;DHT22;2294;51.818;8.484;2023-02-28T07:13:42;-1.40;99.90
4564;DHT22;2294;51.818;8.484;2023-02-28T07:16:11;-1.30;99.90
4564;DHT22;2294;51.818;8.484;2023-02-28T07:18:38;-1.20;99.90
4564;DHT22;2294;51.818;8.484;2023-02-28T07:21:06;-0.90;99.90
4564;DHT22;2294;51.818;8.484;2023-02-28T07:23:34;-0.90;99.90
4564;DHT22;2294;51.818;8.484;2023-02-28T07:26:03;-0.70;99.90
4564;DHT22;2294;51.818;8.484;2023-02-28T07:28:30;-0.60;99.90
4564;DHT22;2294;51.818;8.484;2023-02-28T07:31:02;-0.40;99.90
4564;DHT22;2294;51.818;8.484;2023-02-28T07:33:30;-0.30;99.90
4564;DHT22;2294;51.818;8.484;2023-02-28T07:36:00;-0.20;99.90
4564;DHT22;2294;51.818;8.484;2023-02-28T07:38:27;-0.10;99.90
4564;DHT22;2294;51.818;8.484;2023-02-28T07:40:54;0.00;99.90
4564;DHT22;2294;51.818;8.484;2023-02-28T07:43:21;0.10;99.90
4564;DHT22;2294;51.818;8.484;2023-02-28T07:45:48;0.20;99.90
4564;DHT22;2294;51.818;8.484;2023-02-28T07:48:15;0.20;99.90
4564;DHT22;2294;51.818;8.484;2023-02-28T07:50:43;0.30;99.90
4564;DHT22;2294;51.818;8.484;2023-02-28T07:53:13;0.30;99.90
4564;DHT22;2294;51.818;8.484;2023-02-28T07:55:40;0.30;99.90
4564;DHT22;2294;51.818;8.484;2023-02-28T07:58:07;0.30;99.90
4564;DHT22;2294;51.818;8.484;2023-02-28T08:00:34;0.30;99.90
4564;DHT22;2294;51.818;8.484;2023-02-28T08:03:01;0.50;99.90
4564;DHT22;2294;51.818;8.484;2023-02-28T08:05:28;0.40;99.90
4564;DHT22;2294;51.818;8.484;2023-02-28T08:07:57;0.40;99.90
4564;DHT22;2294;51.818;8.484;2023-02-28T08:10:23;0.40;99.90
4564;DHT22;2294;51.818;8.484;2023-02-28T08:12:50;0.40;99.90
4564;DHT22;2294;51.818;8.484;2023-02-28T08:15:18;0.40;99.90
4564;DHT22;2294;51.818;8.484;2023-02-28T08:17:45;0.40;99.90
4564;DHT22;2294;51.818;8.484;2023-02-28T08:20:12;0.50;99.90
4564;DHT22;2294;51.818;8.484;2023-02-28T08:22:39;0.50;99.90
4564;DHT22;2294;51.818;8.484;2023-02-28T08:25:09;0.60;99.90
4564;DHT22;2294;51.818;8.484;2023-02-28T08:27:36;0.70;99.90
4564;DHT22;2294;51.818;8.484;2023-02-28T08:30:04;0.70;99.90
4564;DHT22;2294;51.818;8.484;2023-02-28T08:32:32;0.80;99.90
4564;DHT22;2294;51.818;8.484;2023-02-28T08:34:59;0.80;99.90
4564;DHT22;2294;51.818;8.484;2023-02-28T08:37:27;0.80;99.90
4564;DHT22;2294;51.818;8.484;2023-02-28T08:39:54;0.90;99.90
4564;DHT22;2294;51.818;8.484;2023-02-28T08:42:22;0.90;99.90
4564;DHT22;2294;51.818;8.484;2023-02-28T08:44:49;0.90;99.90
4564;DHT22;2294;51.818;8.484;2023-02-28T08:47:16;0.90;99.90
4564;DHT22;2294;51.818;8.484;2023-02-28T08:49:43;0.90;99.90
4564;DHT22;2294;51.818;8.484;2023-02-28T08:52:10;1.00;99.90
4564;DHT22;2294;51.818;8.484;2023-02-28T08:54:37;1.20;99.90
4564;DHT22;2294;51.818;8.484;2023-02-28T08:57:04;1.40;99.90
4564;DHT22;2294;51.818;8.484;2023-02-28T08:59:33;1.50;99.90
4564;DHT22;2294;51.818;8.484;2023-02-28T09:01:59;1.60;99.90
4564;DHT22;2294;51.818;8.484;2023-02-28T09:04:26;1.70;99.90
4564;DHT22;2294;51.818;8.484;2023-02-28T09:06:56;1.90;99.90
4564;DHT22;2294;51.818;8.484;2023-02-28T09:09:23;2.00;99.90
4564;DHT22;2294;51.818;8.484;2023-02-28T09:11:49;2.10;99.90
4564;DHT22;2294;51.818;8.484;2023-02-28T09:14:16;2.30;99.90
4564;DHT22;2294;51.818;8.484;2023-02-28T09:16:45;2.50;99.90
4564;DHT22;2294;51.818;8.484;2023-02-28T09:19:12;2.60;99.90
4564;DHT22;2294;51.818;8.484;2023-02-28T09:21:39;2.60;99.90
4564;DHT22;2294;51.818;8.484;2023-02-28T09:24:07;2.80;99.90
4564;DHT22;2294;51.818;8.484;2023-02-28T09:26:34;2.90;99.90
4564;DHT22;2294;51.818;8.484;2023-02-28T09:29:01;3.10;99.90
4564;DHT22;2294;51.818;8.484;2023-02-28T09:31:28;3.30;99.90
4564;DHT22;2294;51.818;8.484;2023-02-28T09:33:57;3.30;99.90
4564;DHT22;2294;51.818;8.484;2023-02-28T09:36:25;3.10;99.90
4564;DHT22;2294;51.818;8.484;2023-02-28T09:38:53;3.10;99.90
4564;DHT22;2294;51.818;8.484;2023-02-28T09:41:23;3.00;99.90
4564;DHT22;2294;51.818;8.484;2023-02-28T09:43:53;3.10;99.90
4564;DHT22;2294;51.818;8.484;2023-02-28T09:46:28;3.20;99.90
4564;DHT22;2294;51.818;8.484;2023-02-28T09:48:59;3.40;99.90
4564;DHT22;2294;51.818;8.484;2023-02-28T09:51:33;3.60;99.90
4564;DHT22;2294;51.818;8.484;2023-02-28T09:54:01;3.80;99.90
4564;DHT22;2294;51.818;8.484;2023-02-28T09:56:33;3.90;99.90
4564;DHT22;2294;51.818;8.484;2023-02-28T09:59:04;4.00;99.90
4564;DHT22;2294;51.818;8.484;2023-02-28T10:01:39;4.00;99.90
4564;DHT22;2294;51.818;8.484;2023-02-28T10:04:19;4.00;99.90
4564;DHT22;2294;51.818;8.484;2023-02-28T10:06:51;4.10;99.90
4564;DHT22;2294;51.818;8.484;2023-02-28T10:09:23;4.00;99.90
4564;DHT22;2294;51.818;8.484;2023-02-28T10:11:52;3.90;99.90
4564;DHT22;2294;51.818;8.484;2023-02-28T10:14:22;3.60;99.90
4564;DHT22;2294;51.818;8.484;2023-02-28T10:16:53;3.50;99.90
4564;DHT22;2294;51.818;8.484;2023-02-28T10:19:27;3.50;99.90
4564;DHT22;2294;51.818;8.484;2023-02-28T10:21:59;3.70;99.90
4564;DHT22;2294;51.818;8.484;2023-02-28T10:24:30;3.80;99.90
4564;DHT22;2294;51.818;8.484;2023-02-28T10:27:01;3.90;99.90
4564;DHT22;2294;51.818;8.484;2023-02-28T10:29:31;4.10;99.90
4564;DHT22;2294;51.818;8.484;2023-02-28T10:32:01;4.30;99.90
4564;DHT22;2294;51.818;8.484;2023-02-28T10:34:31;4.20;99.90
4564;DHT22;2294;51.818;8.484;2023-02-28T10:36:59;4.30;99.90
4564;DHT22;2294;51.818;8.484;2023-02-28T10:39:41;4.30;99.90
4564;DHT22;2294;51.818;8.484;2023-02-28T10:42:23;3.40;99.90
4564;DHT22;2294;51.818;8.484;2023-02-28T10:45:06;4.60;99.90
4564;DHT22;2294;51.818;8.484;2023-02-28T10:47:35;4.90;99.90
4564;DHT22;2294;51.818;8.484;2023-02-28T10:50:05;4.70;99.90
4564;DHT22;2294;51.818;8.484;2023-02-28T10:52:33;4.50;99.90
4564;DHT22;2294;51.818;8.484;2023-02-28T10:55:20;4.70;99.90
4564;DHT22;2294;51.818;8.484;2023-02-28T10:57:49;4.60;99.90
4564;DHT22;2294;51.818;8.484;2023-02-28T11:00:18;4.60;99.90
4564;DHT22;2294;51.818;8.484;2023-02-28T11:02:45;4.60;99.90
4564;DHT22;2294;51.818;8.484;2023-02-28T11:05:35;4.70;99.90
4564;DHT22;2294;51.818;8.484;2023-02-28T11:08:05;5.00;99.90
4564;DHT22;2294;51.818;8.484;2023-02-28T11:10:33;5.00;99.90
4564;DHT22;2294;51.818;8.484;2023-02-28T11:13:01;5.30;99.90
4564;DHT22;2294;51.818;8.484;2023-02-28T11:15:30;5.20;99.90
4564;DHT22;2294;51.818;8.484;2023-02-28T11:17:59;5.30;99.90
4564;DHT22;2294;51.818;8.484;2023-02-28T11:20:28;5.40;99.90
4564;DHT22;2294;51.818;8.484;2023-02-28T11:22:59;5.30;99.90
4564;DHT22;2294;51.818;8.484;2023-02-28T11:25:30;5.70;99.90
4564;DHT22;2294;51.818;8.484;2023-02-28T11:27:58;6.20;99.90
4564;DHT22;2294;51.818;8.484;2023-02-28T11:30:33;6.20;99.90
4564;DHT22;2294;51.818;8.484;2023-02-28T11:33:10;5.90;99.90
4564;DHT22;2294;51.818;8.484;2023-02-28T11:35:46;5.70;99.90
4564;DHT22;2294;51.818;8.484;2023-02-28T11:38:16;5.60;99.90
4564;DHT22;2294;51.818;8.484;2023-02-28T11:40:48;5.70;99.90
4564;DHT22;2294;51.818;8.484;2023-02-28T11:43:28;5.80;99.90
4564;DHT22;2294;51.818;8.484;2023-02-28T11:46:08;5.40;99.90
4564;DHT22;2294;51.818;8.484;2023-02-28T11:48:46;5.50;99.90
4564;DHT22;2294;51.818;8.484;2023-02-28T11:51:20;5.20;99.90
4564;DHT22;2294;51.818;8.484;2023-02-28T11:54:18;4.90;99.90
4564;DHT22;2294;51.818;8.484;2023-02-28T11:56:53;4.70;99.90
4564;DHT22;2294;51.818;8.484;2023-02-28T11:59:35;4.70;99.90
4564;DHT22;2294;51.818;8.484;2023-02-28T12:02:20;5.00;99.90
4564;DHT22;2294;51.818;8.484;2023-02-28T12:04:54;5.20;99.90
4564;DHT22;2294;51.818;8.484;2023-02-28T12:07:34;5.20;99.90
4564;DHT22;2294;51.818;8.484;2023-02-28T12:10:17;5.30;99.90
4564;DHT22;2294;51.818;8.484;2023-02-28T12:12:53;5.30;99.90
4564;DHT22;2294;51.818;8.484;2023-02-28T12:15:45;5.20;99.90
4564;DHT22;2294;51.818;8.484;2023-02-28T12:18:27;5.50;99.90
4564;DHT22;2294;51.818;8.484;2023-02-28T12:21:04;5.40;99.90
4564;DHT22;2294;51.818;8.484;2023-02-28T12:24:01;5.70;99.90
4564;DHT22;2294;51.818;8.484;2023-02-28T12:26:36;6.30;99.90
4564;DHT22;2294;51.818;8.484;2023-02-28T12:29:12;6.80;99.90
4564;DHT22;2294;51.818;8.484;2023-02-28T12:31:46;6.30;99.90
4564;DHT22;2294;51.818;8.484;2023-02-28T12:34:19;6.20;99.90
4564;DHT22;2294;51.818;8.484;2023-02-28T12:36:48;6.00;99.90
4564;DHT22;2294;51.818;8.484;2023-02-28T12:39:19;6.60;99.90
4564;DHT22;2294;51.818;8.484;2023-02-28T12:41:52;7.00;99.90
4564;DHT22;2294;51.818;8.484;2023-02-28T12:44:21;7.00;99.90
4564;DHT22;2294;51.818;8.484;2023-02-28T12:46:51;6.90;99.90
4564;DHT22;2294;51.818;8.484;2023-02-28T12:49:25;6.40;99.90
4564;DHT22;2294;51.818;8.484;2023-02-28T12:51:56;6.60;99.90
4564;DHT22;2294;51.818;8.484;2023-02-28T12:54:29;6.50;99.90
4564;DHT22;2294;51.818;8.484;2023-02-28T12:57:06;6.90;99.90
4564;DHT22;2294;51.818;8.484;2023-02-28T12:59:38;6.90;99.90
4564;DHT22;2294;51.818;8.484;2023-02-28T13:02:33;7.10;99.90
4564;DHT22;2294;51.818;8.484;2023-02-28T13:08:20;7.10;99.90
4564;DHT22;2294;51.818;8.484;2023-02-28T13:10:51;7.40;99.90
4564;DHT22;2294;51.818;8.484;2023-02-28T13:13:23;7.20;99.90
4564;DHT22;2294;51.818;8.484;2023-02-28T13:16:03;7.30;99.90
4564;DHT22;2294;51.818;8.484;2023-02-28T13:18:33;7.10;99.90
4564;DHT22;2294;51.818;8.484;2023-02-28T13:21:02;7.40;99.90
4564;DHT22;2294;51.818;8.484;2023-02-28T13:23:41;7.10;99.90
4564;DHT22;2294;51.818;8.484;2023-02-28T13:26:29;6.90;99.90
4564;DHT22;2294;51.818;8.484;2023-02-28T13:29:28;6.70;99.90
4564;DHT22;2294;51.818;8.484;2023-02-28T13:38:21;9.50;99.90
4564;DHT22;2294;51.818;8.484;2023-02-28T13:40:49;9.80;99.90
4564;DHT22;2294;51.818;8.484;2023-02-28T13:43:17;9.00;99.90
4564;DHT22;2294;51.818;8.484;2023-02-28T13:46:09;9.30;99.90
4564;DHT22;2294;51.818;8.484;2023-02-28T13:48:37;9.80;99.90
4564;DHT22;2294;51.818;8.484;2023-02-28T13:51:36;9.70;99.90
4564;DHT22;2294;51.818;8.484;2023-02-28T13:54:15;9.70;99.90
4564;DHT22;2294;51.818;8.484;2023-02-28T13:56:48;9.20;99.90
4564;DHT22;2294;51.818;8.484;2023-02-28T13:59:24;8.40;99.90
4564;DHT22;2294;51.818;8.484;2023-02-28T14:02:28;8.50;99.90
4564;DHT22;2294;51.818;8.484;2023-02-28T14:05:02;8.30;99.90
4564;DHT22;2294;51.818;8.484;2023-02-28T14:07:36;8.20;99.90
4564;DHT22;2294;51.818;8.484;2023-02-28T14:10:06;8.10;99.90
4564;DHT22;2294;51.818;8.484;2023-02-28T14:12:53;7.50;99.90
4564;DHT22;2294;51.818;8.484;2023-02-28T14:15:38;7.30;99.90
4564;DHT22;2294;51.818;8.484;2023-02-28T14:18:24;7.40;99.90
4564;DHT22;2294;51.818;8.484;2023-02-28T14:20:55;6.90;99.90
4564;DHT22;2294;51.818;8.484;2023-02-28T14:26:29;7.70;99.90
4564;DHT22;2294;51.818;8.484;2023-02-28T14:29:12;7.80;99.90
4564;DHT22;2294;51.818;8.484;2023-02-28T14:31:48;7.90;99.90
4564;DHT22;2294;51.818;8.484;2023-02-28T14:34:35;8.10;99.90
4564;DHT22;2294;51.818;8.484;2023-02-28T14:37:04;8.40;99.90
4564;DHT22;2294;51.818;8.484;2023-02-28T14:39:33;8.60;99.90
4564;DHT22;2294;51.818;8.484;2023-02-28T14:42:02;8.70;99.90
4564;DHT22;2294;51.818;8.484;2023-02-28T14:44:31;8.90;99.90
4564;DHT22;2294;51.818;8.484;2023-02-28T14:47:00;9.10;99.90
4564;DHT22;2294;51.818;8.484;2023-02-28T14:49:34;8.40;99.90
4564;DHT22;2294;51.818;8.484;2023-02-28T14:52:05;9.10;99.90
4564;DHT22;2294;51.818;8.484;2023-02-28T14:54:35;9.10;99.90
4564;DHT22;2294;51.818;8.484;2023-02-28T14:57:02;9.60;99.90
4564;DHT22;2294;51.818;8.484;2023-02-28T14:59:31;10.10;99.90
4564;DHT22;2294;51.818;8.484;2023-02-28T15:02:18;9.80;99.90
4564;DHT22;2294;51.818;8.484;2023-02-28T15:04:54;10.20;99.90
4564;DHT22;2294;51.818;8.484;2023-02-28T15:07:22;10.60;99.90
4564;DHT22;2294;51.818;8.484;2023-02-28T15:10:14;11.10;99.90
4564;DHT22;2294;51.818;8.484;2023-02-28T15:12:47;10.70;99.90
4564;DHT22;2294;51.818;8.484;2023-02-28T15:15:17;10.40;99.90
4564;DHT22;2294;51.818;8.484;2023-02-28T15:17:46;10.30;99.90
4564;DHT22;2294;51.818;8.484;2023-02-28T15:20:17;10.30;99.90
4564;DHT22;2294;51.818;8.484;2023-02-28T15:22:46;10.40;99.90
4564;DHT22;2294;51.818;8.484;2023-02-28T15:25:17;9.80;99.90
4564;DHT22;2294;51.818;8.484;2023-02-28T15:27:47;9.50;99.90
4564;DHT22;2294;51.818;8.484;2023-02-28T15:30:18;10.00;99.90
4564;DHT22;2294;51.818;8.484;2023-02-28T15:32:45;10.10;99.90
4564;DHT22;2294;51.818;8.484;2023-02-28T15:35:30;10.00;99.90
4564;DHT22;2294;51.818;8.484;2023-02-28T15:38:01;9.40;99.90
4564;DHT22;2294;51.818;8.484;2023-02-28T15:40:30;9.40;99.90
4564;DHT22;2294;51.818;8.484;2023-02-28T15:42:59;9.50;99.90
4564;DHT22;2294;51.818;8.484;2023-02-28T15:45:34;8.20;99.90
4564;DHT22;2294;51.818;8.484;2023-02-28T15:48:04;8.60;99.90
4564;DHT22;2294;51.818;8.484;2023-02-28T15:50:32;8.70;99.90
4564;DHT22;2294;51.818;8.484;2023-02-28T15:53:01;8.70;99.90
4564;DHT22;2294;51.818;8.484;2023-02-28T15:55:30;8.90;99.90
4564;DHT22;2294;51.818;8.484;2023-02-28T15:58:00;8.50;99.90
4564;DHT22;2294;51.818;8.484;2023-02-28T16:00:29;8.50;99.90
4564;DHT22;2294;51.818;8.484;2023-02-28T16:02:58;7.90;99.90
4564;DHT22;2294;51.818;8.484;2023-02-28T16:05:27;7.80;99.90
4564;DHT22;2294;51.818;8.484;2023-02-28T16:08:00;7.70;99.90
4564;DHT22;2294;51.818;8.484;2023-02-28T16:10:28;8.00;99.90
4564;DHT22;2294;51.818;8.484;2023-02-28T16:12:57;7.80;99.90
4564;DHT22;2294;51.818;8.484;2023-02-28T16:15:26;7.60;99.90
4564;DHT22;2294;51.818;8.484;2023-02-28T16:17:55;7.40;99.90
4564;DHT22;2294;51.818;8.484;2023-02-28T16:20:24;6.90;99.90
4564;DHT22;2294;51.818;8.484;2023-02-28T16:22:52;6.50;99.90
4564;DHT22;2294;51.818;8.484;2023-02-28T16:25:23;6.10;99.90
4564;DHT22;2294;51.818;8.484;2023-02-28T16:27:52;6.00;99.90
4564;DHT22;2294;51.818;8.484;2023-02-28T16:30:22;5.80;99.90
4564;DHT22;2294;51.818;8.484;2023-02-28T16:32:49;5.50;99.90
4564;DHT22;2294;51.818;8.484;2023-02-28T16:35:17;5.40;99.90
4564;DHT22;2294;51.818;8.484;2023-02-28T16:37:45;5.30;99.90
4564;DHT22;2294;51.818;8.484;2023-02-28T16:40:15;5.20;99.90
4564;DHT22;2294;51.818;8.484;2023-02-28T16:42:45;5.10;99.90
4564;DHT22;2294;51.818;8.484;2023-02-28T16:45:18;4.90;99.90
4564;DHT22;2294;51.818;8.484;2023-02-28T16:47:46;4.80;99.90
4564;DHT22;2294;51.818;8.484;2023-02-28T16:50:16;4.80;99.90
4564;DHT22;2294;51.818;8.484;2023-02-28T16:52:43;4.70;99.90
4564;DHT22;2294;51.818;8.484;2023-02-28T16:55:11;4.50;99.90
4564;DHT22;2294;51.818;8.484;2023-02-28T16:57:38;4.50;99.90